Time;durP1;ratioP1;P1;durP2;ratioP2;P2;SDS_P1;SDS_P2;PMS_P1;PMS_P2;Temp;Humidity;BMP_temperature;BMP_pressure;BME280_temperature;BME280_humidity;BME280_pressure;Samples;Min_cycle;Max_cycle;Signal;HPM_P1;HPM_P2
2021/12/09 00:01:21;;;;;;;;;;;;;;;;;;5009776;28;20041;-73
2021/12/09 00:03:47;;;;;;;12.02;6.35;;;;;;;;;;5009212;28;19925;-73
2021/12/09 00:06:12;;;;;;;17.77;7.50;;;;;;;;;;5007983;28;20021;-73
2021/12/09 00:08:38;;;;;;;18.13;6.97;;;;;;;;;;5008989;28;20029;-74
2021/12/09 00:11:05;;;;;;;10.35;6.20;;;;;;;;;;5009444;28;20018;-73
2021/12/09 00:13:31;;;;;;;12.57;6.57;;;;;;;;;;5009241;28;20083;-73
2021/12/09 00:15:58;;;;;;;12.50;6.30;;;;;;;;;;5008855;28;20045;-73
2021/12/09 00:18:24;;;;;;;12.60;6.47;;;;;;;;;;5008976;28;20049;-74
2021/12/09 00:20:49;;;;;;;15.10;6.78;;;;;;;;;;5008973;28;20022;-73
2021/12/09 00:23:16;;;;;;;10.90;6.20;;;;;;;;;;5007445;28;20026;-73
2021/12/09 00:25:42;;;;;;;12.52;6.38;;;;;;;;;;5008528;28;20407;-74
2021/12/09 00:28:07;;;;;;;16.73;6.68;;;;;;;;;;5008986;28;20030;-74
2021/12/09 00:30:34;;;;;;;12.25;6.00;;;;;;;;;;5011054;28;20109;-73
2021/12/09 00:33:02;;;;;;;13.88;6.20;;;;;;;;;;5012483;28;20021;-74
2021/12/09 00:35:33;;;;;;;12.73;6.15;;;;;;;;;;5012650;28;20030;-74
2021/12/09 00:38:04;;;;;;;16.10;7.10;;;;;;;;;;5012395;28;20030;-74
2021/12/09 00:40:30;;;;;;;14.30;7.15;;;;;;;;;;5011124;28;20029;-74
2021/12/09 00:42:55;;;;;;;11.95;5.90;;;;;;;;;;5012294;28;20022;-74
2021/12/09 00:45:21;;;;;;;11.13;6.13;;;;;;;;;;5012349;28;20037;-73
2021/12/09 00:47:47;;;;;;;13.07;6.30;;;;;;;;;;5012293;28;20087;-74
2021/12/09 00:50:13;;;;;;;12.55;6.13;;;;;;;;;;5011948;28;20124;-73
2021/12/09 00:52:38;;;;;;;13.38;6.50;;;;;;;;;;5011967;28;20107;-75
2021/12/09 00:55:06;;;;;;;11.50;6.63;;;;;;;;;;5012115;28;20042;-74
2021/12/09 00:57:31;;;;;;;15.25;7.03;;;;;;;;;;5011865;28;20410;-74
2021/12/09 00:59:58;;;;;;;10.60;6.22;;;;;;;;;;5011663;28;20035;-74
2021/12/09 01:02:24;;;;;;;17.35;6.80;;;;;;;;;;5012206;28;20032;-73
2021/12/09 01:04:49;;;;;;;13.23;6.15;;;;;;;;;;5011900;28;20046;-74
2021/12/09 01:07:15;;;;;;;14.88;6.05;;;;;;;;;;5011940;28;20025;-74
2021/12/09 01:09:40;;;;;;;16.92;7.03;;;;;;;;;;5011557;28;20036;-73
2021/12/09 01:12:07;;;;;;;16.15;6.18;;;;;;;;;;5010183;28;20486;-74
2021/12/09 01:14:34;;;;;;;14.63;6.13;;;;;;;;;;5011470;28;20535;-73
2021/12/09 01:17:00;;;;;;;11.65;6.32;;;;;;;;;;5012173;28;20061;-73
2021/12/09 01:19:25;;;;;;;10.82;5.78;;;;;;;;;;5011190;28;20058;-74
2021/12/09 01:21:50;;;;;;;12.48;6.00;;;;;;;;;;5011633;28;20053;-73
2021/12/09 01:24:16;;;;;;;10.98;6.03;;;;;;;;;;5011595;28;20417;-74
2021/12/09 01:26:42;;;;;;;13.82;5.82;;;;;;;;;;5011386;28;20126;-74
2021/12/09 01:29:15;;;;;;;10.20;5.20;;;;;;;;;;5007547;28;20500;-73
2021/12/09 01:31:43;;;;;;;9.73;5.45;;;;;;;;;;5011304;28;20032;-74
2021/12/09 01:34:09;;;;;;;11.50;6.10;;;;;;;;;;5011333;28;20484;-74
2021/12/09 01:36:36;;;;;;;10.65;5.45;;;;;;;;;;5011194;28;20101;-74
2021/12/09 01:39:04;;;;;;;17.10;6.03;;;;;;;;;;5011088;28;20555;-73
2021/12/09 01:41:30;;;;;;;11.68;5.57;;;;;;;;;;5011251;28;20806;-73
2021/12/09 01:43:56;;;;;;;9.98;5.32;;;;;;;;;;5010000;28;20419;-73
2021/12/09 01:46:22;;;;;;;10.40;5.05;;;;;;;;;;4994919;28;20034;-75
2021/12/09 01:48:49;;;;;;;9.55;5.18;;;;;;;;;;5010625;28;20037;-73
2021/12/09 01:51:15;;;;;;;12.60;5.68;;;;;;;;;;5011204;28;20065;-74
2021/12/09 01:53:41;;;;;;;10.98;6.38;;;;;;;;;;5011293;28;20021;-74
2021/12/09 01:56:10;;;;;;;14.13;6.07;;;;;;;;;;5010974;28;20029;-73
2021/12/09 01:58:36;;;;;;;12.73;5.63;;;;;;;;;;5010164;28;20109;-73
2021/12/09 02:01:03;;;;;;;12.60;5.57;;;;;;;;;;5010859;28;20396;-73
2021/12/09 02:03:28;;;;;;;12.45;5.72;;;;;;;;;;5010663;28;20499;-73
2021/12/09 02:05:54;;;;;;;10.63;5.88;;;;;;;;;;5010708;28;20084;-73
2021/12/09 02:08:20;;;;;;;14.13;6.30;;;;;;;;;;5010555;28;20507;-73
2021/12/09 02:10:47;;;;;;;15.65;7.07;;;;;;;;;;5010811;28;20025;-73
2021/12/09 02:13:13;;;;;;;10.55;6.35;;;;;;;;;;5010618;28;20030;-73
2021/12/09 02:15:39;;;;;;;11.60;6.25;;;;;;;;;;5008480;28;20084;-73
2021/12/09 02:18:07;;;;;;;11.75;5.93;;;;;;;;;;5010455;28;20030;-73
2021/12/09 02:20:35;;;;;;;12.30;6.43;;;;;;;;;;5010369;28;20018;-73
2021/12/09 02:23:00;;;;;;;12.52;6.47;;;;;;;;;;5010329;28;20022;-73
2021/12/09 02:25:26;;;;;;;14.77;6.22;;;;;;;;;;5010506;28;20109;-73
2021/12/09 02:27:52;;;;;;;16.92;6.13;;;;;;;;;;5010501;28;20550;-73
2021/12/09 02:30:18;;;;;;;9.60;5.60;;;;;;;;;;5010429;28;20384;-73
2021/12/09 02:32:44;;;;;;;7.68;4.80;;;;;;;;;;4998305;28;20084;-73
2021/12/09 02:35:10;;;;;;;11.52;5.60;;;;;;;;;;4990719;28;20077;-75
2021/12/09 02:37:36;;;;;;;9.48;4.68;;;;;;;;;;4990596;28;20026;-74
2021/12/09 02:40:04;;;;;;;9.20;4.47;;;;;;;;;;4989154;28;20121;-73
2021/12/09 02:42:30;;;;;;;9.15;5.05;;;;;;;;;;5009791;28;20052;-74
2021/12/09 02:44:57;;;;;;;14.20;5.40;;;;;;;;;;5010162;28;20631;-73
2021/12/09 02:47:22;;;;;;;11.50;5.80;;;;;;;;;;5009965;28;20457;-74
2021/12/09 02:49:48;;;;;;;12.85;5.47;;;;;;;;;;5009457;28;20121;-73
2021/12/09 02:52:14;;;;;;;17.25;6.00;;;;;;;;;;5007810;28;20037;-73
2021/12/09 02:54:39;;;;;;;11.55;6.05;;;;;;;;;;5010376;28;20100;-73
2021/12/09 02:57:06;;;;;;;13.45;5.90;;;;;;;;;;5009811;28;20412;-74
2021/12/09 02:59:32;;;;;;;16.45;7.00;;;;;;;;;;5009483;28;20502;-73
2021/12/09 03:02:00;;;;;;;10.80;5.38;;;;;;;;;;5008459;28;20030;-74
2021/12/09 03:04:37;;;;;;;14.38;6.10;;;;;;;;;;4998610;28;20096;-74
2021/12/09 03:07:04;;;;;;;9.82;5.78;;;;;;;;;;4990029;28;20019;-73
2021/12/09 03:09:30;;;;;;;8.80;5.38;;;;;;;;;;4999857;28;20084;-74
2021/12/09 03:11:58;;;;;;;10.90;5.75;;;;;;;;;;5009548;28;20388;-73
2021/12/09 03:14:24;;;;;;;13.30;5.68;;;;;;;;;;5009626;28;20033;-74
2021/12/09 03:16:50;;;;;;;10.43;5.75;;;;;;;;;;4995629;28;20515;-74
2021/12/09 03:19:16;;;;;;;12.05;5.13;;;;;;;;;;4989763;28;20384;-74
2021/12/09 03:21:44;;;;;;;10.90;5.90;;;;;;;;;;4990067;28;20060;-74
2021/12/09 03:24:16;;;;;;;13.85;5.82;;;;;;;;;;5007475;28;20104;-74
2021/12/09 03:26:46;;;;;;;10.93;5.47;;;;;;;;;;5009605;28;20388;-75
2021/12/09 03:29:13;;;;;;;8.63;5.35;;;;;;;;;;5009444;28;20025;-74
2021/12/09 03:31:40;;;;;;;12.32;5.90;;;;;;;;;;5008812;28;20030;-74
2021/12/09 03:34:07;;;;;;;12.95;6.00;;;;;;;;;;4995310;28;20030;-74
2021/12/09 03:36:33;;;;;;;13.40;5.97;;;;;;;;;;5009059;28;20026;-74
2021/12/09 03:39:01;;;;;;;13.95;6.88;;;;;;;;;;5009406;28;20053;-73
2021/12/09 03:41:26;;;;;;;12.85;6.30;;;;;;;;;;5009312;28;20038;-74
2021/12/09 03:43:52;;;;;;;14.95;6.20;;;;;;;;;;5009550;28;20432;-73
2021/12/09 03:46:18;;;;;;;12.23;6.60;;;;;;;;;;5009447;28;20096;-74
2021/12/09 03:48:44;;;;;;;12.88;7.18;;;;;;;;;;5007701;28;20037;-75
2021/12/09 03:51:09;;;;;;;10.35;6.25;;;;;;;;;;5009572;28;20037;-74
2021/12/09 03:53:35;;;;;;;13.25;5.95;;;;;;;;;;5009332;28;20029;-73
2021/12/09 03:56:00;;;;;;;13.23;6.47;;;;;;;;;;5008080;28;20036;-74
2021/12/09 03:58:26;;;;;;;13.73;6.47;;;;;;;;;;5009011;28;20026;-74
2021/12/09 04:00:52;;;;;;;9.57;6.15;;;;;;;;;;5008836;28;20251;-74
2021/12/09 04:03:18;;;;;;;10.77;6.03;;;;;;;;;;5009423;28;20034;-74
2021/12/09 04:05:45;;;;;;;15.68;7.00;;;;;;;;;;5011206;28;20030;-74
2021/12/09 04:08:10;;;;;;;12.52;6.00;;;;;;;;;;5012769;28;20033;-74
2021/12/09 04:10:36;;;;;;;11.85;6.25;;;;;;;;;;5004286;28;20034;-75
2021/12/09 04:13:01;;;;;;;11.32;5.72;;;;;;;;;;4993232;28;20037;-73
2021/12/09 04:15:27;;;;;;;11.85;6.40;;;;;;;;;;4993266;28;20029;-74
2021/12/09 04:17:52;;;;;;;11.40;6.90;;;;;;;;;;5001917;28;20034;-74
2021/12/09 04:20:18;;;;;;;11.02;6.00;;;;;;;;;;5012584;28;20060;-74
2021/12/09 04:22:48;;;;;;;13.63;6.35;;;;;;;;;;5012193;28;20476;-74
2021/12/09 04:25:18;;;;;;;16.45;6.68;;;;;;;;;;5011374;28;20034;-74
2021/12/09 04:27:44;;;;;;;13.57;6.72;;;;;;;;;;5012886;28;20030;-74
2021/12/09 04:30:11;;;;;;;12.65;6.55;;;;;;;;;;5012250;28;20026;-73
2021/12/09 04:32:36;;;;;;;16.00;6.75;;;;;;;;;;5012539;28;20116;-74
2021/12/09 04:35:02;;;;;;;16.85;6.85;;;;;;;;;;5012533;28;20113;-74
2021/12/09 04:37:27;;;;;;;12.77;6.82;;;;;;;;;;5011888;28;20060;-74
2021/12/09 04:39:52;;;;;;;18.40;7.57;;;;;;;;;;5012279;28;20026;-74
2021/12/09 04:42:18;;;;;;;13.43;8.13;;;;;;;;;;5012335;28;20029;-74
2021/12/09 04:44:44;;;;;;;13.48;6.85;;;;;;;;;;5012440;28;20170;-73
2021/12/09 04:47:09;;;;;;;14.82;7.45;;;;;;;;;;5011832;28;20175;-74
2021/12/09 04:49:35;;;;;;;14.10;7.70;;;;;;;;;;5010469;28;20109;-73
2021/12/09 04:52:01;;;;;;;13.38;8.23;;;;;;;;;;5012108;28;20499;-74
2021/12/09 04:54:26;;;;;;;15.15;7.50;;;;;;;;;;5010160;28;20157;-74
2021/12/09 04:56:52;;;;;;;16.42;6.82;;;;;;;;;;5012499;28;20111;-74
2021/12/09 04:59:18;;;;;;;22.42;14.88;;;;;;;;;;5011814;28;20029;-74
2021/12/09 05:01:48;;;;;;;13.43;7.63;;;;;;;;;;5012132;28;20030;-74
2021/12/09 05:04:14;;;;;;;13.52;7.00;;;;;;;;;;5011680;28;20032;-74
2021/12/09 05:06:39;;;;;;;13.88;8.48;;;;;;;;;;5011904;28;20104;-74
2021/12/09 05:09:10;;;;;;;15.07;7.47;;;;;;;;;;4992530;28;20384;-74
2021/12/09 05:14:02;;;;;;;11.50;5.70;;;;;;;;;;5010759;28;20022;-74
2021/12/09 05:16:28;;;;;;;10.48;6.38;;;;;;;;;;5012144;28;20126;-74
2021/12/09 05:18:58;;;;;;;12.88;6.85;;;;;;;;;;5011264;28;20109;-74
2021/12/09 05:21:36;;;;;;;14.77;6.85;;;;;;;;;;5011493;28;20079;-73
2021/12/09 05:24:03;;;;;;;12.10;6.78;;;;;;;;;;5011325;28;20080;-74
2021/12/09 05:26:33;;;;;;;11.57;7.18;;;;;;;;;;5010985;28;20109;-73
2021/12/09 05:28:59;;;;;;;11.63;6.70;;;;;;;;;;5011135;28;20029;-74
2021/12/09 05:34:10;;;;;;;14.07;7.05;;;;;;;;;;5011194;28;20037;-75
2021/12/09 05:36:36;;;;;;;16.25;7.03;;;;;;;;;;5011451;28;20483;-74
2021/12/09 05:39:03;;;;;;;15.20;7.35;;;;;;;;;;5010872;28;20038;-74
2021/12/09 05:41:28;;;;;;;15.23;8.65;;;;;;;;;;5011011;28;20422;-74
2021/12/09 05:43:54;;;;;;;15.95;6.88;;;;;;;;;;4992984;28;20037;-72
2021/12/09 05:46:22;;;;;;;14.80;6.63;;;;;;;;;;4991810;28;20045;-74
2021/12/09 05:48:49;;;;;;;12.40;6.90;;;;;;;;;;4991285;28;20050;-74
2021/12/09 05:51:14;;;;;;;13.20;7.40;;;;;;;;;;4991442;28;20437;-74
2021/12/09 05:53:40;;;;;;;14.30;6.20;;;;;;;;;;4991441;28;20065;-74
2021/12/09 05:56:05;;;;;;;13.15;7.25;;;;;;;;;;4991397;28;20033;-74
2021/12/09 05:58:31;;;;;;;14.18;7.53;;;;;;;;;;4992210;28;20026;-74
2021/12/09 06:00:56;;;;;;;19.30;7.45;;;;;;;;;;4991394;28;20496;-74
2021/12/09 06:03:22;;;;;;;14.05;6.70;;;;;;;;;;5006829;28;20116;-74
2021/12/09 06:05:49;;;;;;;13.88;6.85;;;;;;;;;;5009395;28;20030;-74
2021/12/09 06:08:17;;;;;;;14.15;7.35;;;;;;;;;;5010537;28;20088;-75
2021/12/09 06:10:42;;;;;;;14.05;7.45;;;;;;;;;;5010615;28;20022;-75
2021/12/09 06:13:07;;;;;;;15.73;7.28;;;;;;;;;;5010377;28;20033;-74
2021/12/09 06:15:33;;;;;;;14.02;7.78;;;;;;;;;;5009926;28;20022;-73
2021/12/09 06:17:59;;;;;;;15.75;8.15;;;;;;;;;;4989605;28;20121;-74
2021/12/09 06:20:25;;;;;;;18.55;8.10;;;;;;;;;;4996532;28;20394;-74
2021/12/09 06:22:51;;;;;;;15.15;8.85;;;;;;;;;;5003858;28;20108;-74
2021/12/09 06:25:18;;;;;;;16.52;8.85;;;;;;;;;;5010502;28;20129;-73
2021/12/09 06:27:48;;;;;;;15.10;8.27;;;;;;;;;;4995656;28;20132;-73
2021/12/09 06:30:16;;;;;;;18.35;9.00;;;;;;;;;;4992938;28;20399;-73
2021/12/09 06:32:42;;;;;;;16.50;9.07;;;;;;;;;;5000955;28;20030;-73
2021/12/09 06:35:09;;;;;;;24.02;13.10;;;;;;;;;;4998085;28;20389;-74
2021/12/09 06:37:40;;;;;;;17.80;10.48;;;;;;;;;;5007467;28;20095;-73
2021/12/09 06:40:07;;;;;;;18.42;9.57;;;;;;;;;;5008132;28;20022;-73
2021/12/09 06:42:33;;;;;;;18.00;9.15;;;;;;;;;;5009033;28;20034;-74
2021/12/09 06:44:58;;;;;;;16.20;8.95;;;;;;;;;;5008085;28;20028;-74
2021/12/09 06:47:23;;;;;;;18.42;9.90;;;;;;;;;;5009653;28;20029;-74
2021/12/09 06:49:50;;;;;;;22.00;9.85;;;;;;;;;;5009448;28;20105;-73
2021/12/09 06:52:15;;;;;;;22.85;11.40;;;;;;;;;;5009603;28;20076;-74
2021/12/09 06:54:41;;;;;;;19.02;10.27;;;;;;;;;;5013412;28;20041;-74
2021/12/09 06:57:06;;;;;;;18.58;9.75;;;;;;;;;;5009520;28;20025;-73
2021/12/09 06:59:31;;;;;;;19.33;9.75;;;;;;;;;;5009290;28;20055;-74
2021/12/09 07:01:57;;;;;;;18.65;10.25;;;;;;;;;;5008296;28;20087;-73
2021/12/09 07:04:22;;;;;;;21.30;10.35;;;;;;;;;;5020916;28;20372;-74
2021/12/09 07:06:48;;;;;;;19.52;9.60;;;;;;;;;;5023697;28;20434;-74
2021/12/09 07:09:14;;;;;;;19.02;9.93;;;;;;;;;;5005956;28;20033;-75
2021/12/09 07:11:44;;;;;;;21.15;9.48;;;;;;;;;;5001724;28;20029;-73
2021/12/09 07:14:09;;;;;;;16.25;9.65;;;;;;;;;;5003821;28;20037;-71
2021/12/09 07:16:34;;;;;;;17.05;9.02;;;;;;;;;;5001698;28;20404;-74
2021/12/09 07:19:00;;;;;;;19.40;9.77;;;;;;;;;;5004465;28;20479;-74
2021/12/09 07:21:25;;;;;;;15.65;9.10;;;;;;;;;;5005860;28;20400;-74
2021/12/09 07:23:50;;;;;;;22.90;10.25;;;;;;;;;;5005096;28;20050;-74
2021/12/09 07:26:16;;;;;;;19.40;10.80;;;;;;;;;;5004465;28;20028;-73
2021/12/09 07:28:41;;;;;;;19.52;11.07;;;;;;;;;;5005726;28;20037;-73
2021/12/09 07:31:07;;;;;;;19.38;11.23;;;;;;;;;;5004369;28;20569;-74
2021/12/09 07:33:32;;;;;;;17.67;10.38;;;;;;;;;;5004920;28;20025;-74
2021/12/09 07:35:58;;;;;;;17.73;9.82;;;;;;;;;;5004798;28;20057;-74
2021/12/09 07:38:23;;;;;;;17.55;9.35;;;;;;;;;;5005707;28;20033;-72
2021/12/09 07:40:49;;;;;;;21.00;10.52;;;;;;;;;;5008149;28;20018;-73
2021/12/09 07:43:14;;;;;;;17.77;9.93;;;;;;;;;;5007397;28;20029;-73
2021/12/09 07:45:39;;;;;;;23.13;9.60;;;;;;;;;;5008711;28;20030;-73
2021/12/09 07:48:05;;;;;;;20.80;10.38;;;;;;;;;;5009023;28;20030;-74
2021/12/09 07:50:31;;;;;;;16.92;9.55;;;;;;;;;;5008109;28;20037;-73
2021/12/09 07:52:58;;;;;;;17.40;9.35;;;;;;;;;;5008815;28;20395;-74
2021/12/09 07:55:24;;;;;;;18.95;10.43;;;;;;;;;;5008082;28;20049;-73
2021/12/09 07:57:51;;;;;;;24.08;11.82;;;;;;;;;;5008303;28;20105;-75
2021/12/09 08:00:23;;;;;;;19.80;10.32;;;;;;;;;;5008278;28;20040;-73
2021/12/09 08:02:51;;;;;;;17.80;11.05;;;;;;;;;;5008099;28;20029;-75
2021/12/09 08:05:17;;;;;;;17.42;9.93;;;;;;;;;;5007308;28;20022;-74
2021/12/09 08:07:43;;;;;;;22.75;11.80;;;;;;;;;;5006717;28;20025;-73
2021/12/09 08:10:11;;;;;;;28.80;17.55;;;;;;;;;;5008473;28;20381;-74
2021/12/09 08:12:37;;;;;;;22.70;12.35;;;;;;;;;;5008255;28;20029;-73
2021/12/09 08:15:05;;;;;;;19.98;9.80;;;;;;;;;;5008048;28;20025;-73
2021/12/09 08:19:59;;;;;;;20.02;10.45;;;;;;;;;;5008641;28;20048;-74
2021/12/09 08:22:25;;;;;;;17.10;10.40;;;;;;;;;;5006508;28;20476;-74
2021/12/09 08:24:51;;;;;;;19.05;10.32;;;;;;;;;;5008192;28;20057;-75
2021/12/09 08:27:17;;;;;;;17.10;10.20;;;;;;;;;;5008508;28;20053;-74
2021/12/09 08:29:42;;;;;;;18.58;10.07;;;;;;;;;;5008027;28;20403;-73
2021/12/09 08:32:07;;;;;;;16.48;8.52;;;;;;;;;;5009158;28;20546;-75
2021/12/09 08:34:33;;;;;;;13.98;8.38;;;;;;;;;;5008101;28;20534;-74
2021/12/09 08:36:58;;;;;;;16.08;8.30;;;;;;;;;;5007760;28;20076;-73
2021/12/09 08:39:24;;;;;;;15.52;7.95;;;;;;;;;;5002674;28;20060;-75
2021/12/09 08:41:50;;;;;;;15.93;8.25;;;;;;;;;;5007448;28;20116;-74
2021/12/09 08:44:15;;;;;;;17.63;8.05;;;;;;;;;;5007410;28;20112;-73
2021/12/09 08:46:41;;;;;;;15.30;7.35;;;;;;;;;;5006764;28;20093;-74
2021/12/09 08:49:08;;;;;;;16.33;7.70;;;;;;;;;;5006659;28;20022;-72
2021/12/09 08:51:33;;;;;;;15.88;7.60;;;;;;;;;;5007397;28;20030;-74
2021/12/09 08:53:59;;;;;;;11.15;6.95;;;;;;;;;;5006329;28;20037;-76
2021/12/09 08:56:25;;;;;;;12.07;6.50;;;;;;;;;;5002359;28;20025;-74
2021/12/09 08:58:51;;;;;;;12.50;7.10;;;;;;;;;;5007215;28;20176;-75
2021/12/09 09:01:16;;;;;;;16.05;6.70;;;;;;;;;;5007780;28;20669;-75
2021/12/09 09:03:42;;;;;;;14.80;7.18;;;;;;;;;;5007911;28;20022;-73
2021/12/09 09:06:08;;;;;;;13.50;6.70;;;;;;;;;;5031066;23;20184;-73
2021/12/09 09:08:33;;;;;;;11.05;6.60;;;;;;;;;;5020202;28;20030;-73
2021/12/09 09:10:59;;;;;;;13.48;7.15;;;;;;;;;;5028425;28;20032;-74
2021/12/09 09:13:24;;;;;;;17.05;6.80;;;;;;;;;;5022504;28;20430;-73
2021/12/09 09:15:50;;;;;;;10.45;5.85;;;;;;;;;;5014597;28;20525;-74
2021/12/09 09:18:17;;;;;;;14.13;6.15;;;;;;;;;;5008469;28;20318;-72
2021/12/09 09:20:43;;;;;;;18.10;6.28;;;;;;;;;;5009423;28;20096;-74
2021/12/09 09:23:11;;;;;;;9.52;6.18;;;;;;;;;;5011240;28;20495;-75
2021/12/09 09:25:37;;;;;;;10.68;6.35;;;;;;;;;;5010234;28;20498;-74
2021/12/09 09:28:03;;;;;;;11.57;5.95;;;;;;;;;;5008268;28;20042;-74
2021/12/09 09:30:35;;;;;;;8.98;5.55;;;;;;;;;;5010297;28;20030;-73
2021/12/09 09:33:02;;;;;;;12.50;6.03;;;;;;;;;;5010058;28;20029;-73
2021/12/09 09:35:27;;;;;;;18.58;6.55;;;;;;;;;;5008061;28;20462;-72
2021/12/09 09:37:53;;;;;;;9.35;5.05;;;;;;;;;;5014159;28;20030;-74
2021/12/09 09:40:28;;;;;;;8.70;4.90;;;;;;;;;;4998114;28;20354;-76
2021/12/09 09:43:04;;;;;;;14.00;6.20;;;;;;;;;;5007837;28;20022;-74
2021/12/09 09:45:30;;;;;;;9.35;5.03;;;;;;;;;;5007861;28;20077;-72
2021/12/09 09:47:56;;;;;;;12.60;6.35;;;;;;;;;;5006963;28;20026;-74
2021/12/09 09:50:22;;;;;;;10.00;5.45;;;;;;;;;;5003548;28;20084;-76
2021/12/09 09:52:48;;;;;;;12.88;5.90;;;;;;;;;;5007015;28;20105;-74
2021/12/09 09:55:20;;;;;;;13.05;5.75;;;;;;;;;;5006779;28;20140;-73
2021/12/09 09:57:45;;;;;;;12.50;5.90;;;;;;;;;;5006770;28;20220;-73
2021/12/09 10:00:12;;;;;;;13.77;6.20;;;;;;;;;;5004772;28;20307;-71
2021/12/09 10:02:38;;;;;;;14.48;7.35;;;;;;;;;;5015899;28;20124;-71
2021/12/09 10:05:06;;;;;;;13.07;6.45;;;;;;;;;;5006961;28;20040;-74
2021/12/09 10:07:33;;;;;;;15.15;6.10;;;;;;;;;;5006924;28;20053;-74
2021/12/09 10:09:59;;;;;;;13.65;6.68;;;;;;;;;;5003558;28;20044;-73
2021/12/09 10:12:24;;;;;;;15.13;6.65;;;;;;;;;;5005942;28;20034;-74
2021/12/09 10:14:52;;;;;;;10.68;6.28;;;;;;;;;;5006310;28;20030;-72
2021/12/09 10:17:21;;;;;;;12.90;6.80;;;;;;;;;;5006042;28;20483;-76
2021/12/09 10:19:46;;;;;;;15.55;6.18;;;;;;;;;;5008321;28;20026;-76
2021/12/09 10:22:23;;;;;;;16.05;8.27;;;;;;;;;;5005419;28;20257;-75
2021/12/09 10:24:52;;;;;;;13.32;7.18;;;;;;;;;;5014483;28;20505;-74
2021/12/09 10:27:27;;;;;;;15.80;6.97;;;;;;;;;;5007588;28;20038;-74
2021/12/09 10:29:57;;;;;;;19.55;9.10;;;;;;;;;;5005572;28;20018;-74
2021/12/09 10:32:28;;;;;;;20.25;8.90;;;;;;;;;;5006982;28;20088;-74
2021/12/09 10:34:55;;;;;;;54.95;23.13;;;;;;;;;;5007222;28;20235;-75
2021/12/09 10:37:29;;;;;;;15.73;7.22;;;;;;;;;;5014115;28;20061;-74
2021/12/09 10:39:59;;;;;;;57.75;23.23;;;;;;;;;;5004869;28;20343;-75
2021/12/09 10:42:30;;;;;;;18.60;9.15;;;;;;;;;;5002951;28;20044;-73
2021/12/09 10:45:00;;;;;;;28.88;12.38;;;;;;;;;;5005503;28;20030;-73
2021/12/09 10:50:29;;;;;;;16.30;7.93;;;;;;;;;;4997955;28;20491;-72
2021/12/09 10:53:16;;;;;;;27.98;13.43;;;;;;;;;;5004678;28;20120;-74
2021/12/09 10:55:41;;;;;;;17.17;8.38;;;;;;;;;;4991136;28;20160;-76
2021/12/09 10:58:10;;;;;;;43.22;19.15;;;;;;;;;;5015526;28;20117;-73
2021/12/09 11:00:38;;;;;;;21.15;9.23;;;;;;;;;;5008961;28;20035;-73
2021/12/09 11:03:25;;;;;;;20.10;9.88;;;;;;;;;;5010891;28;20395;-75
2021/12/09 11:06:00;;;;;;;12.57;6.03;;;;;;;;;;5004058;28;20054;-74
2021/12/09 11:08:28;;;;;;;19.88;7.88;;;;;;;;;;5007098;28;20033;-73
2021/12/09 11:11:07;;;;;;;18.02;8.75;;;;;;;;;;5016348;28;20491;-74
2021/12/09 11:13:43;;;;;;;10.95;7.13;;;;;;;;;;5006040;28;20132;-75
2021/12/09 11:16:08;;;;;;;13.70;5.60;;;;;;;;;;5004257;28;20096;-76
2021/12/09 11:18:44;;;;;;;11.88;6.03;;;;;;;;;;5008620;28;20041;-75
2021/12/09 11:21:24;;;;;;;10.15;5.82;;;;;;;;;;5006104;28;20505;-74
2021/12/09 11:24:09;;;;;;;10.73;5.45;;;;;;;;;;5009656;28;20030;-75
2021/12/09 11:29:16;;;;;;;8.75;4.75;;;;;;;;;;5009178;28;20486;-74
2021/12/09 11:31:46;;;;;;;8.90;4.80;;;;;;;;;;5009100;28;20488;-73
2021/12/09 11:34:16;;;;;;;7.82;5.57;;;;;;;;;;5009280;28;20092;-73
2021/12/09 11:36:47;;;;;;;12.82;4.88;;;;;;;;;;5009677;28;20033;-73
2021/12/09 11:39:19;;;;;;;9.25;4.70;;;;;;;;;;5008994;28;20021;-74
2021/12/09 11:41:46;;;;;;;8.25;4.80;;;;;;;;;;5009555;28;20026;-71
2021/12/09 11:44:12;;;;;;;9.45;5.25;;;;;;;;;;5009239;28;20029;-73
2021/12/09 11:46:40;;;;;;;13.13;5.00;;;;;;;;;;5008580;28;20112;-72
2021/12/09 11:49:06;;;;;;;10.05;4.43;;;;;;;;;;5009010;28;20491;-74
2021/12/09 11:51:32;;;;;;;11.10;5.60;;;;;;;;;;5009356;28;20028;-72
2021/12/09 11:54:00;;;;;;;17.60;7.38;;;;;;;;;;5008914;28;20033;-74
2021/12/09 12:11:04;;;;;;;11.55;5.97;;;;;;;;;;5009286;28;20092;-76
2021/12/09 12:13:44;;;;;;;8.55;5.68;;;;;;;;;;5008994;28;20205;-72
2021/12/09 12:16:39;;;;;;;10.20;6.20;;;;;;;;;;5009135;28;20029;-71
2021/12/09 12:19:34;;;;;;;11.15;4.90;;;;;;;;;;5008766;28;20048;-71
2021/12/09 12:27:28;;;;;;;11.57;6.03;;;;;;;;;;5013022;28;20133;-75
2021/12/09 12:38:29;;;;;;;13.02;7.18;;;;;;;;;;5011996;28;20113;-73
2021/12/09 12:41:14;;;;;;;7.75;4.90;;;;;;;;;;5012294;28;20101;-74
2021/12/09 12:43:50;;;;;;;8.98;4.85;;;;;;;;;;5020724;28;20514;-73
2021/12/09 12:46:45;;;;;;;10.25;3.92;;;;;;;;;;5026061;28;20491;-73
2021/12/09 12:49:35;;;;;;;15.60;6.93;;;;;;;;;;5011742;28;20542;-73
2021/12/09 12:52:16;;;;;;;12.77;7.00;;;;;;;;;;5010565;28;20033;-73
2021/12/09 12:54:55;;;;;;;10.35;6.00;;;;;;;;;;5010705;28;20471;-74
2021/12/09 12:57:40;;;;;;;7.65;4.15;;;;;;;;;;4998264;28;20080;-73
2021/12/09 13:00:30;;;;;;;9.70;4.65;;;;;;;;;;5007738;28;20034;-74
2021/12/09 13:06:10;;;;;;;11.15;5.07;;;;;;;;;;5008196;28;20038;-72
2021/12/09 13:09:29;;;;;;;8.60;4.95;;;;;;;;;;5007478;28;20036;-73
2021/12/09 13:11:44;;;;;;;8.85;5.28;;;;;;;;;;5006207;28;20460;-74
2021/12/09 13:14:18;;;;;;;6.90;4.30;;;;;;;;;;5009997;28;20026;-77
2021/12/09 13:17:00;;;;;;;7.57;4.30;;;;;;;;;;5009624;28;20472;-75
2021/12/09 13:19:40;;;;;;;7.72;4.88;;;;;;;;;;5010040;28;20022;-77
2021/12/09 13:22:11;;;;;;;6.93;4.18;;;;;;;;;;5010304;28;20395;-76
2021/12/09 13:24:50;;;;;;;8.88;4.03;;;;;;;;;;5009187;28;20036;-78
2021/12/09 13:33:08;;;;;;;11.93;5.43;;;;;;;;;;5008024;28;20041;-73
2021/12/09 13:36:05;;;;;;;6.78;4.13;;;;;;;;;;5008078;28;20025;-75
2021/12/09 13:49:42;;;;;;;7.70;4.20;;;;;;;;;;5010892;28;20388;-73
2021/12/09 13:54:58;;;;;;;6.43;3.13;;;;;;;;;;5005351;28;20103;-74
2021/12/09 13:57:33;;;;;;;4.45;3.03;;;;;;;;;;5003407;28;20153;-73
2021/12/09 13:59:59;;;;;;;23.00;10.02;;;;;;;;;;5005254;28;20059;-76
2021/12/09 14:02:26;;;;;;;11.63;5.97;;;;;;;;;;5007160;28;20030;-77
2021/12/09 14:04:53;;;;;;;7.80;4.13;;;;;;;;;;5007027;28;20060;-78
2021/12/09 14:07:26;;;;;;;14.07;7.75;;;;;;;;;;5006935;28;20721;-74
2021/12/09 14:10:04;;;;;;;5.15;3.15;;;;;;;;;;5005935;28;20116;-73
2021/12/09 14:12:38;;;;;;;3.85;3.03;;;;;;;;;;5006460;28;20073;-73
2021/12/09 14:15:08;;;;;;;5.85;2.80;;;;;;;;;;5006695;28;20101;-76
2021/12/09 14:17:36;;;;;;;3.90;2.40;;;;;;;;;;5006921;28;20558;-72
2021/12/09 14:20:06;;;;;;;7.28;3.17;;;;;;;;;;5006801;28;20025;-74
2021/12/09 14:22:34;;;;;;;5.72;3.35;;;;;;;;;;5006273;28;20049;-74
2021/12/09 14:25:03;;;;;;;5.22;2.80;;;;;;;;;;5006771;28;20030;-77
2021/12/09 14:27:29;;;;;;;6.22;3.28;;;;;;;;;;5006750;28;20030;-74
2021/12/09 14:29:56;;;;;;;6.68;2.67;;;;;;;;;;5006351;28;20033;-76
2021/12/09 14:32:24;;;;;;;5.55;2.67;;;;;;;;;;5006120;28;20109;-77
2021/12/09 14:34:52;;;;;;;4.47;2.45;;;;;;;;;;5006677;28;20025;-75
2021/12/09 14:37:19;;;;;;;6.47;3.08;;;;;;;;;;5006066;28;20343;-75
2021/12/09 14:39:45;;;;;;;4.13;2.85;;;;;;;;;;5006503;28;20033;-74
2021/12/09 14:42:16;;;;;;;5.53;3.35;;;;;;;;;;5007242;28;20025;-73
2021/12/09 14:44:55;;;;;;;3.00;2.38;;;;;;;;;;5006806;28;20040;-74
2021/12/09 14:47:21;;;;;;;3.30;2.45;;;;;;;;;;5006737;28;20097;-76
2021/12/09 14:49:51;;;;;;;3.95;2.60;;;;;;;;;;5005651;28;20125;-73
2021/12/09 14:52:27;;;;;;;3.67;2.63;;;;;;;;;;5006242;28;20120;-76
2021/12/09 14:54:52;;;;;;;4.63;2.70;;;;;;;;;;5006113;28;20118;-77
2021/12/09 14:57:17;;;;;;;4.63;2.40;;;;;;;;;;5007055;28;20475;-74
2021/12/09 14:59:45;;;;;;;5.25;2.30;;;;;;;;;;5005817;28;20108;-73
2021/12/09 15:02:13;;;;;;;7.28;2.70;;;;;;;;;;5006365;28;20025;-77
2021/12/09 15:04:44;;;;;;;3.35;2.80;;;;;;;;;;5006454;28;20026;-74
2021/12/09 15:07:27;;;;;;;4.97;2.40;;;;;;;;;;5018626;28;20025;-73
2021/12/09 15:10:00;;;;;;;2.75;2.33;;;;;;;;;;5026523;28;20098;-76
2021/12/09 15:12:32;;;;;;;3.50;2.15;;;;;;;;;;5024864;28;20037;-75
2021/12/09 15:15:01;;;;;;;3.05;2.13;;;;;;;;;;5006111;28;20068;-75
2021/12/09 15:17:27;;;;;;;2.30;1.98;;;;;;;;;;5005560;28;20499;-74
2021/12/09 15:20:11;;;;;;;4.78;2.30;;;;;;;;;;5005637;28;20044;-74
2021/12/09 15:22:56;;;;;;;3.75;2.55;;;;;;;;;;5005911;28;20045;-73
2021/12/09 15:25:23;;;;;;;7.07;3.30;;;;;;;;;;5006383;28;20045;-75
2021/12/09 15:28:01;;;;;;;4.65;3.38;;;;;;;;;;5006558;28;20566;-75
2021/12/09 15:30:57;;;;;;;3.88;2.53;;;;;;;;;;5005895;28;20022;-75
2021/12/09 15:33:55;;;;;;;4.00;2.92;;;;;;;;;;5005541;28;20034;-74
2021/12/09 15:36:32;;;;;;;3.38;2.50;;;;;;;;;;4982173;28;20069;-73
2021/12/09 15:39:16;;;;;;;3.95;2.75;;;;;;;;;;5006680;28;20129;-77
2021/12/09 15:41:42;;;;;;;;;;;;;;;;;;5006935;28;20182;-74
2021/12/09 15:44:14;;;;;;;2.47;2.03;;;;;;;;;;5008275;28;19909;-74
2021/12/09 15:47:05;;;;;;;4.22;2.10;;;;;;;;;;5006777;28;20060;-76